createdAt,value
2019-01-23T00:01:20.687Z,-4.30
2019-01-23T00:03:47.753Z,-4.30
2019-01-23T00:06:14.557Z,-4.30
2019-01-23T00:08:46.097Z,-4.30
2019-01-23T00:11:12.679Z,-4.30
2019-01-23T00:13:39.832Z,-4.30
2019-01-23T00:16:06.632Z,-4.30
2019-01-23T00:18:34.743Z,-4.30
2019-01-23T00:21:01.699Z,-4.30
2019-01-23T00:23:28.334Z,-4.30
2019-01-23T00:25:59.895Z,-4.30
2019-01-23T00:28:26.499Z,-4.40
2019-01-23T00:30:57.658Z,-4.40
2019-01-23T00:33:26.227Z,-4.40
2019-01-23T00:36:13.460Z,-4.40
2019-01-23T00:38:40.472Z,-4.40
2019-01-23T00:41:07.341Z,-4.40
2019-01-23T00:43:41.144Z,-4.40
2019-01-23T00:46:10.154Z,-4.40
2019-01-23T00:48:37.719Z,-4.40
2019-01-23T00:51:05.559Z,-4.30
2019-01-23T00:53:32.523Z,-4.40
2019-01-23T00:56:03.148Z,-4.40
2019-01-23T00:58:37.135Z,-4.40
2019-01-23T01:01:05.759Z,-4.40
2019-01-23T01:03:34.407Z,-4.40
2019-01-23T01:06:06.887Z,-4.40
2019-01-23T01:08:35.928Z,-4.50
2019-01-23T01:11:06.052Z,-4.50
2019-01-23T01:13:32.654Z,-4.50
2019-01-23T01:16:00.178Z,-4.50
2019-01-23T01:18:27.135Z,-4.50
2019-01-23T01:20:54.089Z,-4.50
2019-01-23T01:23:21.867Z,-4.50
2019-01-23T01:25:50.728Z,-4.60
2019-01-23T01:28:17.419Z,-4.50
2019-01-23T01:30:45.140Z,-4.50
2019-01-23T01:33:11.951Z,-4.50
2019-01-23T01:35:39.747Z,-4.50
2019-01-23T01:38:07.191Z,-4.50
2019-01-23T01:40:34.075Z,-4.50
2019-01-23T01:43:05.073Z,-4.50
2019-01-23T01:45:31.640Z,-4.60
2019-01-23T01:47:59.506Z,-4.60
2019-01-23T01:50:27.522Z,-4.50
2019-01-23T01:52:54.115Z,-4.60
2019-01-23T01:55:20.991Z,-4.60
2019-01-23T01:57:51.543Z,-4.60
2019-01-23T02:00:22.424Z,-4.60
2019-01-23T02:02:52.965Z,-4.60
2019-01-23T02:05:23.075Z,-4.50
2019-01-23T02:07:49.884Z,-4.60
2019-01-23T02:10:18.832Z,-4.60
2019-01-23T02:12:53.824Z,-4.50
2019-01-23T02:15:21.778Z,-4.60
2019-01-23T02:17:48.510Z,-4.60
2019-01-23T02:20:18.477Z,-4.60
2019-01-23T02:22:44.965Z,-4.60
2019-01-23T02:25:13.730Z,-4.60
2019-01-23T02:27:42.826Z,-4.60
2019-01-23T02:30:18.477Z,-4.60
2019-01-23T02:32:45.079Z,-4.60
2019-01-23T02:35:11.694Z,-4.70
2019-01-23T02:37:38.614Z,-4.60
2019-01-23T02:40:17.913Z,-4.60
2019-01-23T02:42:44.678Z,-4.70
2019-01-23T02:45:17.316Z,-4.70
2019-01-23T02:47:44.145Z,-4.70
2019-01-23T02:50:14.417Z,-4.70
2019-01-23T02:52:42.265Z,-4.80
2019-01-23T02:55:09.960Z,-4.70
2019-01-23T02:57:37.950Z,-4.80
2019-01-23T03:00:12.059Z,-4.80
2019-01-23T03:02:38.787Z,-4.80
2019-01-23T03:05:08.849Z,-4.70
2019-01-23T03:07:35.714Z,-4.80
2019-01-23T03:10:08.453Z,-4.80
2019-01-23T03:12:36.280Z,-4.80
2019-01-23T03:15:07.169Z,-4.80
2019-01-23T03:17:33.653Z,-4.80
2019-01-23T03:20:00.354Z,-4.80
2019-01-23T03:22:26.906Z,-4.70
2019-01-23T03:24:54.381Z,-4.80
2019-01-23T03:27:21.290Z,-4.80
2019-01-23T03:29:49.082Z,-4.80
2019-01-23T03:32:15.911Z,-4.80
2019-01-23T03:34:42.713Z,-4.80
2019-01-23T03:37:09.547Z,-4.80
2019-01-23T03:39:41.394Z,-4.80
2019-01-23T03:42:07.883Z,-4.80
2019-01-23T03:44:39.042Z,-4.90
2019-01-23T03:47:05.755Z,-4.90
2019-01-23T03:49:32.565Z,-4.80
2019-01-23T03:51:59.396Z,-4.90
2019-01-23T03:54:25.836Z,-4.90
2019-01-23T03:56:54.807Z,-4.90
2019-01-23T03:59:32.015Z,-4.90
2019-01-23T04:01:54.841Z,-4.90
2019-01-23T04:04:21.673Z,-4.90
2019-01-23T04:06:53.230Z,-4.90
2019-01-23T04:09:27.928Z,-4.90
2019-01-23T04:11:59.121Z,-5.00
2019-01-23T04:14:26.042Z,-5.00
2019-01-23T04:16:52.470Z,-5.00
2019-01-23T04:19:19.479Z,-5.00
2019-01-23T04:21:47.077Z,-5.00
2019-01-23T04:24:14.538Z,-5.00
2019-01-23T04:26:42.345Z,-5.00
2019-01-23T04:29:12.188Z,-5.00
2019-01-23T04:31:47.142Z,-5.00
2019-01-23T04:34:14.937Z,-5.00
2019-01-23T04:36:41.457Z,-5.00
2019-01-23T04:39:12.312Z,-5.00
2019-01-23T04:41:39.887Z,-5.00
2019-01-23T04:44:07.800Z,-4.90
2019-01-23T04:46:38.334Z,-5.00
2019-01-23T04:49:05.121Z,-4.90
2019-01-23T04:51:41.718Z,-4.90
2019-01-23T04:54:13.458Z,-4.90
2019-01-23T04:56:41.258Z,-5.00
2019-01-23T04:59:08.059Z,-4.90
2019-01-23T05:01:36.920Z,-4.90
2019-01-23T05:04:07.128Z,-4.90
2019-01-23T05:06:38.293Z,-4.90
2019-01-23T05:09:06.404Z,-4.90
2019-01-23T05:11:32.907Z,-4.90
2019-01-23T05:13:59.711Z,-4.90
2019-01-23T05:16:26.173Z,-4.90
2019-01-23T05:18:53.588Z,-4.90
2019-01-23T05:21:21.469Z,-4.90
2019-01-23T05:23:49.998Z,-4.80
2019-01-23T05:26:17.821Z,-4.90
2019-01-23T05:28:45.399Z,-4.90
2019-01-23T05:31:13.270Z,-4.80
2019-01-23T05:33:44.204Z,-4.80
2019-01-23T05:36:11.145Z,-4.80
2019-01-23T05:38:38.668Z,-4.80
2019-01-23T05:41:10.545Z,-4.80
2019-01-23T05:43:45.418Z,-4.80
2019-01-23T05:46:13.286Z,-4.80
2019-01-23T05:48:42.129Z,-4.80
2019-01-23T05:51:12.318Z,-4.80
2019-01-23T05:53:41.170Z,-4.80
2019-01-23T05:56:08.916Z,-4.80
2019-01-23T05:58:36.765Z,-4.70
2019-01-23T06:01:04.521Z,-4.70
2019-01-23T06:03:33.153Z,-4.70
2019-01-23T06:06:03.650Z,-4.70
2019-01-23T06:08:30.655Z,-4.80
2019-01-23T06:10:59.460Z,-4.80
2019-01-23T06:13:25.993Z,-4.80
2019-01-23T06:15:55.701Z,-4.70
2019-01-23T06:18:29.713Z,-4.80
2019-01-23T06:20:59.970Z,-4.70
2019-01-23T06:23:27.410Z,-4.80
2019-01-23T06:25:55.947Z,-4.70
2019-01-23T06:28:27.159Z,-4.70
2019-01-23T06:30:54.039Z,-4.70
2019-01-23T06:33:25.241Z,-4.70
2019-01-23T06:35:52.009Z,-4.70
2019-01-23T06:38:23.117Z,-4.70
2019-01-23T06:40:49.964Z,-4.70
2019-01-23T06:43:16.865Z,-4.60
2019-01-23T06:45:44.763Z,-4.60
2019-01-23T06:48:11.393Z,-4.60
2019-01-23T06:50:37.912Z,-4.70
2019-01-23T06:53:04.423Z,-4.60
2019-01-23T06:55:33.262Z,-4.70
2019-01-23T06:58:01.870Z,-4.60
2019-01-23T07:00:29.737Z,-4.60
2019-01-23T07:02:56.568Z,-4.60
2019-01-23T07:05:27.489Z,-4.60
2019-01-23T07:07:55.474Z,-4.60
2019-01-23T07:10:26.646Z,-4.60
2019-01-23T07:12:54.162Z,-4.60
2019-01-23T07:15:22.116Z,-4.60
2019-01-23T07:17:48.608Z,-4.60
2019-01-23T07:20:23.972Z,-4.60
2019-01-23T07:22:50.805Z,-4.60
2019-01-23T07:25:18.485Z,-4.60
2019-01-23T07:27:45.238Z,-4.60
2019-01-23T07:30:15.702Z,-4.60
2019-01-23T07:32:44.373Z,-4.70
2019-01-23T07:35:11.221Z,-4.70
2019-01-23T07:37:39.697Z,-4.70
2019-01-23T07:40:07.985Z,-4.70
2019-01-23T07:42:41.419Z,-4.70
2019-01-23T07:45:17.295Z,-4.60
2019-01-23T07:47:46.193Z,-4.60
2019-01-23T07:50:17.757Z,-4.60
2019-01-23T07:52:45.434Z,-4.50
2019-01-23T07:55:17.773Z,-4.50
2019-01-23T07:57:44.454Z,-4.60
2019-01-23T08:00:17.525Z,-4.60
2019-01-23T08:02:46.450Z,-4.50
2019-01-23T08:05:19.568Z,-4.60
2019-01-23T08:07:46.986Z,-4.60
2019-01-23T08:10:16.717Z,-4.60
2019-01-23T08:12:47.749Z,-4.60
2019-01-23T08:15:27.227Z,-4.60
2019-01-23T08:17:54.117Z,-4.50
2019-01-23T08:20:22.787Z,-4.50
2019-01-23T08:22:49.813Z,-4.50
2019-01-23T08:25:16.392Z,-4.60
2019-01-23T08:27:43.925Z,-4.60
2019-01-23T08:30:14.097Z,-4.60
2019-01-23T08:32:44.638Z,-4.60
2019-01-23T08:35:15.842Z,-4.60
2019-01-23T08:37:42.494Z,-4.70
2019-01-23T08:40:11.911Z,-4.70
2019-01-23T08:42:39.437Z,-4.70
2019-01-23T08:45:11.763Z,-4.70
2019-01-23T08:47:39.338Z,-4.70
2019-01-23T08:50:23.436Z,-4.70
2019-01-23T08:52:51.253Z,-4.60
2019-01-23T08:55:19.298Z,-4.60
2019-01-23T08:57:46.390Z,-4.50
2019-01-23T09:00:16.423Z,-4.50
2019-01-23T09:02:43.337Z,-4.50
2019-01-23T09:05:11.986Z,-4.50
2019-01-23T09:07:41.934Z,-4.40
2019-01-23T09:10:12.266Z,-4.40
2019-01-23T09:12:41.389Z,-4.40
2019-01-23T09:15:13.828Z,-4.30
2019-01-23T09:17:40.600Z,-4.30
2019-01-23T09:20:12.233Z,-4.20
2019-01-23T09:22:39.946Z,-4.20
2019-01-23T09:25:23.488Z,-4.10
2019-01-23T09:27:50.086Z,-4.10
2019-01-23T09:30:38.410Z,-4.00
2019-01-23T09:33:29.762Z,-4.00
2019-01-23T09:36:15.681Z,-4.00
2019-01-23T09:39:11.796Z,-4.10
2019-01-23T09:41:50.229Z,-4.10
2019-01-23T09:44:43.538Z,-4.10
2019-01-23T09:47:23.897Z,-4.20
2019-01-23T09:50:12.043Z,-4.10
2019-01-23T09:52:48.139Z,-4.10
2019-01-23T09:55:14.752Z,-4.10
2019-01-23T09:57:44.009Z,-4.10
2019-01-23T10:00:17.874Z,-4.10
2019-01-23T10:02:44.449Z,-4.00
2019-01-23T10:05:10.981Z,-4.00
2019-01-23T10:07:37.964Z,-4.00
2019-01-23T10:10:17.090Z,-4.00
2019-01-23T10:12:45.934Z,-4.00
2019-01-23T10:15:16.173Z,-4.00
2019-01-23T10:17:43.934Z,-4.00
2019-01-23T10:20:10.863Z,-4.00
2019-01-23T10:22:37.302Z,-4.00
2019-01-23T10:25:04.661Z,-4.00
2019-01-23T10:27:31.486Z,-4.00
2019-01-23T10:30:00.513Z,-4.10
2019-01-23T10:32:31.825Z,-4.00
2019-01-23T10:34:58.590Z,-4.10
2019-01-23T10:37:25.378Z,-4.10
2019-01-23T10:39:52.383Z,-4.00
2019-01-23T10:42:19.324Z,-4.00
2019-01-23T10:44:46.227Z,-4.00
2019-01-23T10:47:13.838Z,-4.00
2019-01-23T10:49:40.754Z,-4.00
2019-01-23T10:52:08.553Z,-3.90
2019-01-23T10:54:35.389Z,-3.90
2019-01-23T10:57:03.680Z,-3.90
2019-01-23T10:59:30.606Z,-3.80
2019-01-23T11:01:57.138Z,-3.80
2019-01-23T11:04:24.149Z,-3.70
2019-01-23T11:06:50.893Z,-3.60
2019-01-23T11:09:17.517Z,-3.50
2019-01-23T11:11:44.289Z,-3.50
2019-01-23T11:14:11.777Z,-3.50
2019-01-23T11:16:38.393Z,-3.50
2019-01-23T11:19:04.950Z,-3.50
2019-01-23T11:21:32.532Z,-3.50
2019-01-23T11:23:59.526Z,-3.60
2019-01-23T11:26:26.473Z,-3.60
2019-01-23T11:28:53.162Z,-3.60
2019-01-23T11:31:20.515Z,-3.60
2019-01-23T11:33:47.208Z,-3.60
2019-01-23T11:36:15.121Z,-3.60
2019-01-23T11:38:43.950Z,-3.60
2019-01-23T11:41:10.781Z,-3.60
2019-01-23T11:43:37.308Z,-3.60
2019-01-23T11:46:05.189Z,-3.60
2019-01-23T11:48:31.630Z,-3.50
2019-01-23T11:50:58.469Z,-3.50
2019-01-23T11:53:24.901Z,-3.50
2019-01-23T11:55:52.465Z,-3.50
2019-01-23T11:58:19.079Z,-3.60
2019-01-23T12:00:52.086Z,-3.60
2019-01-23T12:03:20.947Z,-3.60
2019-01-23T12:05:48.222Z,-3.60
2019-01-23T12:08:15.284Z,-3.70
2019-01-23T12:10:45.113Z,-3.70
2019-01-23T12:13:15.108Z,-3.60
2019-01-23T12:15:42.904Z,-3.60
2019-01-23T12:18:17.473Z,-3.60
2019-01-23T12:20:45.285Z,-3.60
2019-01-23T12:23:13.212Z,-3.50
2019-01-23T12:25:43.858Z,-3.50
2019-01-23T12:28:11.435Z,-3.50
2019-01-23T12:30:41.989Z,-3.50
2019-01-23T12:33:08.522Z,-3.50
2019-01-23T12:35:36.094Z,-3.40
2019-01-23T12:38:03.205Z,-3.40
2019-01-23T12:40:32.026Z,-3.30
2019-01-23T12:42:58.846Z,-3.30
2019-01-23T12:45:27.893Z,-3.30
2019-01-23T12:47:54.456Z,-3.30
2019-01-23T12:50:26.214Z,-3.40
2019-01-23T12:52:53.688Z,-3.50
2019-01-23T12:55:22.509Z,-3.50
2019-01-23T12:57:50.154Z,-3.50
2019-01-23T13:00:24.912Z,-3.50
2019-01-23T13:02:51.914Z,-3.50
2019-01-23T13:05:20.582Z,-3.50
2019-01-23T13:07:48.689Z,-3.50
2019-01-23T13:10:17.435Z,-3.50
2019-01-23T13:12:46.846Z,-3.60
2019-01-23T13:15:16.432Z,-3.70
2019-01-23T13:17:43.326Z,-3.80
2019-01-23T13:20:17.257Z,-3.80
2019-01-23T13:22:43.721Z,-3.90
2019-01-23T13:25:16.415Z,-4.00
2019-01-23T13:27:44.265Z,-4.00
2019-01-23T13:30:17.073Z,-4.00
2019-01-23T13:32:45.758Z,-3.90
2019-01-23T13:35:15.930Z,-3.90
2019-01-23T13:37:46.710Z,-3.80
2019-01-23T13:40:20.025Z,-3.80
2019-01-23T13:42:48.498Z,-3.90
2019-01-23T13:45:16.143Z,-3.90
2019-01-23T13:47:43.177Z,-4.00
2019-01-23T13:50:12.345Z,-4.00
2019-01-23T13:52:40.292Z,-4.00
2019-01-23T13:55:20.403Z,-3.90
2019-01-23T13:57:47.337Z,-4.00
2019-01-23T14:00:25.669Z,-4.00
2019-01-23T14:02:52.305Z,-3.90
2019-01-23T14:05:19.038Z,-3.90
2019-01-23T14:07:47.282Z,-4.00
2019-01-23T14:10:18.250Z,-3.90
2019-01-23T14:12:48.026Z,-3.90
2019-01-23T14:15:20.288Z,-3.90
2019-01-23T14:17:48.093Z,-4.00
2019-01-23T14:20:16.881Z,-3.90
2019-01-23T14:22:45.794Z,-3.90
2019-01-23T14:25:15.517Z,-3.90
2019-01-23T14:27:44.407Z,-3.80
2019-01-23T14:30:27.220Z,-3.80
2019-01-23T14:32:55.121Z,-3.80
2019-01-23T14:35:22.853Z,-3.80
2019-01-23T14:38:00.535Z,-3.80
2019-01-23T14:40:23.203Z,-3.80
2019-01-23T14:42:50.738Z,-3.90
2019-01-23T14:45:18.454Z,-3.90
2019-01-23T14:47:45.326Z,-3.90
2019-01-23T14:50:20.471Z,-3.90
2019-01-23T14:52:48.097Z,-4.00
2019-01-23T14:55:14.954Z,-4.00
2019-01-23T14:57:43.241Z,-4.00
2019-01-23T15:00:29.474Z,-4.00
2019-01-23T15:02:57.012Z,-4.00
2019-01-23T15:05:25.002Z,-4.00
2019-01-23T15:07:53.637Z,-4.00
2019-01-23T15:10:25.274Z,-4.00
2019-01-23T15:12:55.505Z,-4.10
2019-01-23T15:15:22.085Z,-4.10
2019-01-23T15:17:51.092Z,-4.10
2019-01-23T15:20:23.864Z,-4.10
2019-01-23T15:22:51.661Z,-4.10
2019-01-23T15:25:21.842Z,-4.10
2019-01-23T15:27:48.859Z,-4.10
2019-01-23T15:30:23.802Z,-4.10
2019-01-23T15:32:54.424Z,-4.10
2019-01-23T15:35:21.779Z,-4.10
2019-01-23T15:37:54.502Z,-4.10
2019-01-23T15:40:23.936Z,-4.20
2019-01-23T15:42:55.934Z,-4.20
2019-01-23T15:45:28.410Z,-4.20
2019-01-23T15:47:56.558Z,-4.10
2019-01-23T15:50:26.564Z,-4.20
2019-01-23T15:52:54.749Z,-4.20
2019-01-23T15:55:24.115Z,-4.20
2019-01-23T15:57:54.371Z,-4.20
2019-01-23T16:00:28.213Z,-4.30
2019-01-23T16:02:57.265Z,-4.30
2019-01-23T16:05:24.236Z,-4.30
2019-01-23T16:07:51.070Z,-4.20
2019-01-23T16:10:21.419Z,-4.20
2019-01-23T16:12:49.437Z,-4.30
2019-01-23T16:15:19.617Z,-4.30
2019-01-23T16:17:46.197Z,-4.30
2019-01-23T16:20:13.889Z,-4.30
2019-01-23T16:22:41.284Z,-4.30
2019-01-23T16:25:12.387Z,-4.30
2019-01-23T16:27:38.931Z,-4.30
2019-01-23T16:30:21.863Z,-4.30
2019-01-23T16:32:50.073Z,-4.30
2019-01-23T16:35:17.430Z,-4.30
2019-01-23T16:37:46.581Z,-4.30
2019-01-23T16:40:14.176Z,-4.30
2019-01-23T16:42:45.283Z,-4.20
2019-01-23T16:45:17.635Z,-4.20
2019-01-23T16:47:45.643Z,-4.20
2019-01-23T16:50:18.557Z,-4.20
2019-01-23T16:52:47.610Z,-4.20
2019-01-23T16:55:16.395Z,-4.20
2019-01-23T16:57:47.214Z,-4.20
2019-01-23T17:00:19.316Z,-4.30
2019-01-23T17:02:47.106Z,-4.20
2019-01-23T17:05:17.332Z,-4.20
2019-01-23T17:07:43.985Z,-4.10
2019-01-23T17:10:15.092Z,-4.00
2019-01-23T17:12:46.193Z,-4.00
2019-01-23T17:15:23.450Z,-4.00
2019-01-23T17:17:55.473Z,-4.10
2019-01-23T17:20:38.141Z,-4.10
2019-01-23T17:23:12.814Z,-4.10
2019-01-23T17:25:45.762Z,-4.10
2019-01-23T17:28:15.322Z,-4.10
2019-01-23T17:30:42.942Z,-4.10
2019-01-23T17:33:11.558Z,-4.00
2019-01-23T17:35:40.309Z,-4.00
2019-01-23T17:38:08.876Z,-4.00
2019-01-23T17:40:36.382Z,-4.00
2019-01-23T17:43:04.205Z,-3.90
2019-01-23T17:45:37.206Z,-3.90
2019-01-23T17:48:07.385Z,-3.90
2019-01-23T17:50:34.221Z,-3.90
2019-01-23T17:53:02.202Z,-3.90
2019-01-23T17:55:35.352Z,-3.90
2019-01-23T17:58:02.609Z,-3.90
2019-01-23T18:00:36.695Z,-4.00
2019-01-23T18:03:07.725Z,-4.00
2019-01-23T18:05:34.450Z,-4.00
2019-01-23T18:08:02.400Z,-4.00
2019-01-23T18:10:28.982Z,-4.00
2019-01-23T18:12:56.953Z,-4.00
2019-01-23T18:15:39.789Z,-3.90
2019-01-23T18:18:09.921Z,-3.90
2019-01-23T18:20:37.978Z,-3.90
2019-01-23T18:23:07.909Z,-3.90
2019-01-23T18:25:36.437Z,-4.00
2019-01-23T18:28:07.915Z,-4.00
2019-01-23T18:30:38.648Z,-4.10
2019-01-23T18:33:15.300Z,-4.00
2019-01-23T18:36:01.569Z,-4.10
2019-01-23T18:38:33.205Z,-4.10
2019-01-23T18:41:21.857Z,-4.10
2019-01-23T18:44:08.744Z,-4.20
2019-01-23T18:46:45.381Z,-4.20
2019-01-23T18:49:22.541Z,-4.20
2019-01-23T18:52:06.193Z,-4.20
2019-01-23T18:54:34.698Z,-4.20
2019-01-23T18:57:01.521Z,-4.30
2019-01-23T18:59:29.297Z,-4.30
2019-01-23T19:01:56.849Z,-4.30
2019-01-23T19:04:23.289Z,-4.20
2019-01-23T19:06:50.232Z,-4.30
2019-01-23T19:09:17.662Z,-4.30
2019-01-23T19:11:46.699Z,-4.30
2019-01-23T19:14:13.727Z,-4.30
2019-01-23T19:16:42.934Z,-4.40
2019-01-23T19:19:10.950Z,-4.40
2019-01-23T19:21:43.049Z,-4.40
2019-01-23T19:24:09.753Z,-4.50
2019-01-23T19:26:36.680Z,-4.50
2019-01-23T19:29:03.506Z,-4.50
2019-01-23T19:31:30.338Z,-4.50
2019-01-23T19:33:58.191Z,-4.50
2019-01-23T19:36:25.146Z,-4.50
2019-01-23T19:38:52.736Z,-4.60
2019-01-23T19:41:20.601Z,-4.60
2019-01-23T19:43:47.498Z,-4.60
2019-01-23T19:46:17.314Z,-4.60
2019-01-23T19:48:44.054Z,-4.60
2019-01-23T19:51:16.305Z,-4.60
2019-01-23T19:53:43.131Z,-4.60
2019-01-23T19:56:10.780Z,-4.60
2019-01-23T19:58:38.773Z,-4.60
2019-01-23T20:01:05.703Z,-4.70
2019-01-23T20:03:32.709Z,-4.70
2019-01-23T20:06:00.221Z,-4.60
2019-01-23T20:08:27.057Z,-4.70
2019-01-23T20:10:57.160Z,-4.70
2019-01-23T20:13:23.969Z,-4.70
2019-01-23T20:15:50.807Z,-4.70
2019-01-23T20:18:17.526Z,-4.70
2019-01-23T20:20:46.408Z,-4.70
2019-01-23T20:23:14.141Z,-4.70
2019-01-23T20:25:40.854Z,-4.70
2019-01-23T20:28:08.385Z,-4.70
2019-01-23T20:30:36.010Z,-4.70
2019-01-23T20:33:03.191Z,-4.70
2019-01-23T20:35:29.761Z,-4.80
2019-01-23T20:37:56.746Z,-4.70
2019-01-23T20:40:24.901Z,-4.70
2019-01-23T20:42:51.846Z,-4.80
2019-01-23T20:45:19.421Z,-4.80
2019-01-23T20:47:48.014Z,-4.70
2019-01-23T20:50:23.878Z,-4.70
2019-01-23T20:52:50.451Z,-4.80
2019-01-23T20:55:17.933Z,-4.80
2019-01-23T20:57:44.518Z,-4.80
2019-01-23T21:00:15.722Z,-4.80
2019-01-23T21:02:42.291Z,-4.80
2019-01-23T21:05:10.533Z,-4.80
2019-01-23T21:07:41.269Z,-4.80
2019-01-23T21:10:11.706Z,-4.80
2019-01-23T21:12:38.428Z,-4.80
2019-01-23T21:15:08.246Z,-4.80
2019-01-23T21:17:34.793Z,-4.80
2019-01-23T21:20:05.071Z,-4.80
2019-01-23T21:22:36.526Z,-4.80
2019-01-23T21:25:06.729Z,-4.80
2019-01-23T21:27:38.875Z,-4.80
2019-01-23T21:30:12.541Z,-4.70
2019-01-23T21:32:42.877Z,-4.70
2019-01-23T21:35:11.128Z,-4.70
2019-01-23T21:37:39.825Z,-4.70
2019-01-23T21:40:15.201Z,-4.70
2019-01-23T21:42:48.036Z,-4.70
2019-01-23T21:45:16.085Z,-4.70
2019-01-23T21:47:43.741Z,-4.70
2019-01-23T21:50:14.776Z,-4.70
2019-01-23T21:52:42.914Z,-4.70
2019-01-23T21:55:11.774Z,-4.80
2019-01-23T21:57:39.289Z,-4.80
2019-01-23T22:00:14.652Z,-4.80
2019-01-23T22:02:41.178Z,-4.80
2019-01-23T22:05:12.166Z,-4.80
2019-01-23T22:07:40.734Z,-4.80
2019-01-23T22:10:10.537Z,-4.80
2019-01-23T22:12:37.097Z,-4.80
2019-01-23T22:15:08.907Z,-4.80
2019-01-23T22:17:37.481Z,-4.80
2019-01-23T22:20:17.219Z,-4.90
2019-01-23T22:22:44.877Z,-4.90
2019-01-23T22:25:19.041Z,-4.90
2019-01-23T22:27:45.950Z,-4.90
2019-01-23T22:30:20.482Z,-4.90
2019-01-23T22:32:48.210Z,-4.90
2019-01-23T22:35:17.224Z,-4.90
2019-01-23T22:37:44.205Z,-4.90
2019-01-23T22:40:13.421Z,-4.90
2019-01-23T22:42:40.115Z,-5.00
2019-01-23T22:45:10.877Z,-5.00
2019-01-23T22:47:38.389Z,-5.00
2019-01-23T22:50:08.806Z,-5.00
2019-01-23T22:52:46.027Z,-5.00
2019-01-23T22:55:15.136Z,-5.00
2019-01-23T22:57:43.246Z,-4.90
2019-01-23T23:00:23.666Z,-5.00
2019-01-23T23:02:53.622Z,-5.00
2019-01-23T23:05:21.219Z,-4.90
2019-01-23T23:07:54.712Z,-5.00
2019-01-23T23:10:23.205Z,-4.90
2019-01-23T23:12:51.798Z,-4.90
2019-01-23T23:15:27.337Z,-4.90
2019-01-23T23:17:55.174Z,-5.00
2019-01-23T23:20:22.741Z,-5.00
2019-01-23T23:22:49.197Z,-5.00
2019-01-23T23:25:16.027Z,-5.00
2019-01-23T23:27:42.890Z,-5.00
2019-01-23T23:30:14.856Z,-5.00
2019-01-23T23:32:41.746Z,-5.10
2019-01-23T23:35:10.190Z,-5.10
2019-01-23T23:37:38.081Z,-5.10
2019-01-23T23:40:13.524Z,-5.10
2019-01-23T23:42:40.507Z,-5.20
2019-01-23T23:45:11.747Z,-5.20
2019-01-23T23:47:38.577Z,-5.20
2019-01-23T23:50:08.661Z,-5.20
2019-01-23T23:52:36.530Z,-5.20
2019-01-23T23:55:05.014Z,-5.20
2019-01-23T23:57:43.878Z,-5.20
